Latest Weather Observations for Murganella Airstrip

IDD60801

Issued at 1:31 pm CST Saturday 7 March 2015 (issued every 30 minutes, with the page automatically refreshed every 10 minutes)

About weather observations | Map of weather stations | Latest weather observations for NT | Other Formats
Station Details ID: 014309 Name: MURGANELLA AIRSTRIP Lat: -11.55 Lon: 132.93 Height: 9.5 m
Data from the previous 72 hours. | See also: Recent months for locations in Northern Territory
Date/Time
CST
Temp
°C
App
Temp
°C
Dew
Point
Rel
Hum
%
Delta-T
°C
Wind Press
QNH
hPa
Press
MSL
hPa
Rain
since 9 am
mm
Dir
 
Spd
km/h
Gust
km/h
Spd
kts
Gust
kts
07/01:30pm 33.7 40.6 28.2 73 4.0 SW 9 19 5 10 1006.1 1006.0 0.2
07/01:00pm 32.9 40.3 28.8 79 3.0 WSW 9 17 5 9 1006.5 1006.4 0.2
07/12:30pm 31.7 38.8 28.0 81 2.7 W 7 11 4 6 1006.8 1006.7 0.2
07/12:00pm 31.6 38.7 27.9 81 2.7 W 7 15 4 8 1006.8 1006.7 0.2
07/11:30am 31.8 40.0 29.2 86 1.9 W 6 13 3 7 1007.1 1007.0 0.2
07/11:00am 31.1 39.8 29.8 93 1.0 W 6 13 3 7 1007.3 1007.2 0.2
07/10:30am 30.4 39.4 30.4 100 0.0 NW 7 13 4 7 1007.6 1007.5 0.2
07/10:00am 29.4 37.6 29.4 100 0.0 WSW 7 13 4 7 1007.8 1007.7 0.0
07/09:30am 29.1 37.6 29.1 100 0.0 SW 4 9 2 5 1007.8 1007.7 0.0
07/09:00am 27.8 35.0 27.8 100 0.0 SSW 6 11 3 6 1008.1 1008.0 0.4
07/08:30am 27.1 33.6 27.1 100 0.0 S 7 11 4 6 1008.0 1007.9 0.4
07/08:00am 26.6 33.0 26.6 100 0.0 SW 6 9 3 5 1007.5 1007.4 0.4
07/07:30am 25.9 32.2 25.9 100 0.0 WSW 4 6 2 3 1006.9 1006.8 0.4
07/07:00am 24.7 31.0 24.7 100 0.0 CALM 0 0 0 0 1007.0 1006.9 0.4
07/06:30am 24.4 30.5 24.4 100 0.0 CALM 0 0 0 0 1006.9 1006.8 0.4
07/06:00am 24.4 30.5 24.4 100 0.0 CALM 0 0 0 0 1006.8 1006.7 0.4
07/05:30am 24.4 30.5 24.4 100 0.0 CALM 0 0 0 0 1006.4 1006.3 0.4
07/05:00am 24.8 31.1 24.8 100 0.0 CALM 0 0 0 0 1006.3 1006.2 0.4
07/04:30am 24.9 31.3 24.9 100 0.0 CALM 0 0 0 0 1006.3 1006.2 0.4
07/04:00am 24.9 31.3 24.9 100 0.0 CALM 0 0 0 0 1006.0 1005.9 0.4
07/03:30am 25.0 31.5 25.0 100 0.0 CALM 0 0 0 0 1005.8 1005.7 0.4
07/03:00am 25.1 31.6 25.1 100 0.0 CALM 0 0 0 0 1005.7 1005.6 0.4
07/02:30am 25.3 31.9 25.3 100 0.0 CALM 0 0 0 0 1006.2 1006.1 0.4
07/02:00am 25.4 32.1 25.4 100 0.0 CALM 0 0 0 0 1006.5 1006.4 0.4
07/01:30am 25.5 32.3 25.5 100 0.0 CALM 0 0 0 0 1007.0 1006.9 0.4
07/01:00am 25.7 32.6 25.7 100 0.0 CALM 0 0 0 0 1007.5 1007.4 0.4
07/12:30am 25.7 32.6 25.7 100 0.0 CALM 0 0 0 0 1007.8 1007.7 0.4
07/12:00am 25.7 32.6 25.7 100 0.0 CALM 0 0 0 0 1008.0 1007.9 0.4
 
Date/Time
CST
Temp
°C
App
Temp
°C
Dew
Point
Rel
Hum
%
Delta-T
°C
Wind Press
QNH
hPa
Press
MSL
hPa
Rain
since 9 am
mm
Dir
 
Spd
km/h
Gust
km/h
Spd
kts
Gust
kts
06/11:30pm 25.7 32.6 25.7 100 0.0 CALM 0 0 0 0 1008.0 1007.9 0.4
06/11:00pm 25.6 32.1 25.6 100 0.0 NNW 2 4 1 2 1007.8 1007.7 0.4
06/10:30pm 25.6 32.4 25.6 100 0.0 CALM 0 4 0 2 1007.7 1007.6 0.4
06/10:00pm 25.8 32.8 25.8 100 0.0 CALM 0 0 0 0 1008.1 1008.0 0.4
06/09:30pm 25.7 31.8 25.7 100 0.0 SSE 4 9 2 5 1007.8 1007.7 0.4
06/09:00pm 25.9 32.9 25.9 100 0.0 CALM 0 0 0 0 1007.0 1006.9 0.4
06/08:30pm 25.8 32.8 25.8 100 0.0 CALM 0 0 0 0 1006.8 1006.7 0.4
06/08:00pm 26.1 33.3 26.1 100 0.0 CALM 0 0 0 0 1006.6 1006.5 0.4
06/07:30pm 26.8 34.4 26.8 100 0.0 CALM 0 2 0 1 1006.5 1006.4 0.4
06/07:00pm 27.2 34.7 27.2 100 0.0 W 2 6 1 3 1005.6 1005.5 0.4
06/06:30pm 27.6 35.4 27.6 100 0.0 S 2 4 1 2 1005.4 1005.3 0.4
06/06:00pm 27.7 35.6 27.7 100 0.0 SSE 2 4 1 2 1004.8 1004.7 0.4
06/05:30pm 27.8 36.1 27.8 100 0.0 CALM 0 2 0 1 1004.4 1004.3 0.4
06/05:00pm 27.8 35.0 27.8 100 0.0 SSW 6 7 3 4 1004.5 1004.4 0.4
06/04:30pm 28.7 36.9 28.7 100 0.0 NNW 4 9 2 5 1004.5 1004.4 0.4
06/04:00pm 27.9 33.8 27.9 100 0.0 SW 13 20 7 11 1004.9 1004.8 0.2
06/03:30pm 30.5 37.5 27.5 84 2.2 W 6 11 3 6 1005.0 1004.9 0.0
06/03:00pm 31.3 40.2 30.0 93 1.0 NW 6 13 3 7 1005.0 1004.9 0.0
06/02:30pm 31.6 37.6 26.4 74 3.7 WNW 7 11 4 6 1005.3 1005.2 0.0
06/02:00pm 31.9 37.3 25.5 69 4.5 W 7 13 4 7 1005.4 1005.3 0.0
06/01:30pm 31.6 37.3 25.9 72 4.1 W 7 17 4 9 1006.1 1006.0 0.0
06/01:00pm 32.6 39.3 27.4 74 3.8 NW 7 13 4 7 1006.4 1006.3 0.0
06/12:30pm 31.4 36.8 25.5 71 4.2 WNW 7 13 4 7 1006.8 1006.7 0.0
06/12:00pm 32.4 38.2 25.2 66 5.1 NNW 4 11 2 6 1007.3 1007.2 0.0
06/11:30am 32.1 38.5 26.9 74 3.8 W 7 15 4 8 1007.4 1007.3 0.0
06/11:00am 31.7 38.3 27.2 77 3.3 W 7 13 4 7 1007.4 1007.3 0.0
06/10:30am 31.1 39.1 29.1 89 1.5 WNW 7 13 4 7 1007.8 1007.7 0.0
06/10:00am 29.8 37.3 28.5 93 1.0 NW 7 13 4 7 1007.9 1007.8 0.0
06/09:30am 29.1 37.3 29.1 100 0.0 W 6 9 3 5 1008.0 1007.9 0.0
06/09:00am 29.0 37.1 29.0 100 0.0 W 6 9 3 5 1008.0 1007.9 0.0
06/08:30am 27.6 35.4 27.6 100 0.0 W 2 6 1 3 1007.9 1007.8 0.0
06/08:00am 25.9 32.9 25.9 100 0.0 CALM 0 0 0 0 1007.4 1007.3 0.0
06/07:30am 24.6 30.8 24.6 100 0.0 CALM 0 0 0 0 1007.1 1007.0 0.0
06/07:00am 23.7 29.4 23.7 100 0.0 CALM 0 0 0 0 1007.0 1006.9 0.0
06/06:30am 23.7 29.4 23.7 100 0.0 CALM 0 0 0 0 1007.0 1006.9 0.0
06/06:00am 23.6 29.2 23.6 100 0.0 CALM 0 0 0 0 1006.7 1006.6 0.0
06/05:30am 23.8 29.5 23.8 100 0.0 CALM 0 0 0 0 1006.6 1006.5 0.0
06/05:00am 24.0 29.8 24.0 100 0.0 CALM 0 0 0 0 1006.5 1006.4 0.0
06/04:30am 24.1 30.0 24.1 100 0.0 CALM 0 0 0 0 1006.5 1006.4 0.0
06/04:00am 24.3 30.3 24.3 100 0.0 CALM 0 0 0 0 1006.8 1006.7 0.0
06/03:30am 24.5 30.6 24.5 100 0.0 CALM 0 0 0 0 1007.0 1006.9 0.0
06/03:00am 24.7 31.0 24.7 100 0.0 CALM 0 0 0 0 1007.3 1007.2 0.0
06/02:30am 25.0 31.5 25.0 100 0.0 CALM 0 0 0 0 1007.6 1007.5 0.0
06/02:00am 25.2 31.8 25.2 100 0.0 CALM 0 0 0 0 1007.9 1007.8 0.0
06/01:30am 25.5 32.3 25.5 100 0.0 CALM 0 0 0 0 1008.2 1008.1 0.0
06/01:00am 25.6 32.1 25.6 100 0.0 SW 2 6 1 3 1008.6 1008.5 0.0
06/12:30am 25.9 32.9 25.9 100 0.0 CALM 0 0 0 0 1008.7 1008.6 0.0
06/12:00am 26.3 33.6 26.3 100 0.0 CALM 0 0 0 0 1008.9 1008.8 0.0
 
Date/Time
CST
Temp
°C
App
Temp
°C
Dew
Point
Rel
Hum
%
Delta-T
°C
Wind Press
QNH
hPa
Press
MSL
hPa
Rain
since 9 am
mm
Dir
 
Spd
km/h
Gust
km/h
Spd
kts
Gust
kts
05/11:30pm 26.3 33.6 26.3 100 0.0 CALM 0 0 0 0 1008.8 1008.7 0.0
05/11:00pm 26.2 33.4 26.2 100 0.0 CALM 0 0 0 0 1009.0 1008.9 0.0
05/10:30pm 26.0 32.7 26.0 100 0.0 N 2 4 1 2 1008.7 1008.6 0.0
05/10:00pm 25.9 32.6 25.9 100 0.0 N 2 4 1 2 1008.5 1008.4 0.0
05/09:30pm 26.0 32.7 26.0 100 0.0 N 2 4 1 2 1008.3 1008.2 0.0
05/09:00pm 26.1 32.9 26.1 100 0.0 N 2 4 1 2 1008.3 1008.2 0.0
05/08:30pm 26.1 32.5 26.1 100 0.0 WNW 4 6 2 3 1008.2 1008.1 0.0
05/08:00pm 26.3 32.5 26.3 100 0.0 SSW 6 9 3 5 1008.2 1008.1 0.0
05/07:30pm 26.9 33.5 26.9 100 0.0 SSW 6 9 3 5 1007.8 1007.7 0.0
05/07:00pm 29.1 37.8 28.8 98 0.2 W 2 6 1 3 1007.2 1007.1 0.0
05/06:30pm 29.6 36.5 27.4 88 1.6 N 6 9 3 5 1006.2 1006.1 0.0
05/06:00pm 30.5 37.4 27.7 85 2.0 NNW 7 11 4 6 1005.9 1005.8 0.0
05/05:30pm 30.9 35.6 25.5 73 3.8 N 11 17 6 9 1005.2 1005.1 0.0
05/05:00pm 31.5 37.0 25.6 71 4.2 N 7 17 4 9 1005.1 1005.0 0.0
05/04:30pm 31.9 37.6 26.4 72 4.0 N 9 19 5 10 1005.3 1005.2 0.0
05/04:00pm 31.2 37.1 27.3 80 2.8 NNW 11 15 6 8 1005.6 1005.5 0.0
05/03:30pm 31.0 37.2 26.7 78 3.1 NNW 7 15 4 8 1005.7 1005.6 0.0
05/03:00pm 33.0 37.9 25.3 64 5.5 ESE 9 13 5 7 1005.8 1005.7 0.0
05/02:30pm 33.4 39.3 25.4 63 5.7 SE 4 9 2 5 1006.0 1005.9 0.0
05/02:00pm 32.8 39.6 27.3 73 4.0 E 6 11 3 6 1006.3 1006.2 0.0
05/01:30pm 32.2 38.6 26.7 72 4.0 NE 6 11 3 6 1006.9 1006.8 0.0
05/01:00pm 32.1 38.6 26.2 71 4.2 NE 4 9 2 5 1007.6 1007.5 0.0
05/12:30pm 32.1 40.0 28.8 83 2.4 ENE 6 9 3 5 1008.2 1008.1 0.0
05/12:00pm 31.5 40.1 28.7 85 2.1 SSE 2 6 1 3 1008.5 1008.4 0.0
05/11:30am 30.8 40.4 30.4 98 0.3 ENE 4 6 2 3 1008.6 1008.5 0.0
05/11:00am 29.8 38.5 29.8 100 0.0 NNE 6 9 3 5 1008.7 1008.6 0.0
05/10:30am 30.1 39.8 30.1 100 0.0 ENE 2 7 1 4 1009.1 1009.0 0.0
05/10:00am 29.4 38.6 29.4 100 0.0 ESE 2 6 1 3 1009.3 1009.2 0.0
05/09:30am 28.2 36.4 28.2 100 0.0 ESE 2 4 1 2 1009.5 1009.4 0.0
05/09:00am 26.7 34.3 26.7 100 0.0 CALM 0 0 0 0 1009.6 1009.5 5.2
05/08:30am 25.5 32.3 25.5 100 0.0 CALM 0 0 0 0 1009.2 1009.1 5.2
05/08:00am 25.0 31.5 25.0 100 0.0 CALM 0 0 0 0 1008.9 1008.8 5.2
05/07:30am 24.8 31.1 24.8 100 0.0 CALM 0 0 0 0 1008.4 1008.3 5.2
05/07:00am 24.4 30.5 24.4 100 0.0 CALM 0 0 0 0 1007.9 1007.8 5.2
05/06:30am 24.5 30.6 24.5 100 0.0 CALM 0 0 0 0 1008.2 1008.1 5.2
05/06:00am 24.8 31.1 24.8 100 0.0 CALM 0 0 0 0 1008.0 1007.9 5.2
05/05:30am 24.8 30.4 24.8 100 0.0 W 4 4 2 2 1007.9 1007.8 5.2
05/05:00am 24.8 31.1 24.8 100 0.0 CALM 0 0 0 0 1007.9 1007.8 5.2
05/04:30am 25.0 31.5 25.0 100 0.0 CALM 0 0 0 0 1007.6 1007.5 5.2
05/04:00am 25.0 31.5 25.0 100 0.0 CALM 0 0 0 0 1007.4 1007.3 5.2
05/03:30am 25.1 31.6 25.1 100 0.0 CALM 0 0 0 0 1007.5 1007.4 5.2
05/03:00am 25.1 31.6 25.1 100 0.0 CALM 0 0 0 0 1007.7 1007.6 5.2
05/02:30am 25.1 31.6 25.1 100 0.0 CALM 0 0 0 0 1007.9 1007.8 5.2
05/02:00am 25.1 31.6 25.1 100 0.0 CALM 0 0 0 0 1008.1 1008.0 5.2
05/01:30am 25.3 31.9 25.3 100 0.0 CALM 0 0 0 0 1008.5 1008.4 5.2
05/01:00am 25.3 31.9 25.3 100 0.0 CALM 0 0 0 0 1008.7 1008.6 5.2
05/12:30am 25.4 32.1 25.4 100 0.0 CALM 0 0 0 0 1008.8 1008.7 5.2
05/12:00am 25.6 32.4 25.6 100 0.0 CALM 0 0 0 0 1009.3 1009.2 5.2
 
Date/Time
CST
Temp
°C
App
Temp
°C
Dew
Point
Rel
Hum
%
Delta-T
°C
Wind Press
QNH
hPa
Press
MSL
hPa
Rain
since 9 am
mm
Dir
 
Spd
km/h
Gust
km/h
Spd
kts
Gust
kts
04/11:30pm 25.7 32.6 25.7 100 0.0 CALM 0 0 0 0 1009.6 1009.5 5.2
04/11:00pm 25.6 32.4 25.6 100 0.0 CALM 0 0 0 0 1009.7 1009.6 5.2
04/10:30pm 25.8 32.8 25.8 100 0.0 CALM 0 0 0 0 1009.6 1009.5 5.2
04/10:00pm 25.9 32.9 25.9 100 0.0 CALM 0 0 0 0 1009.3 1009.2 5.2
04/09:30pm 26.1 33.3 26.1 100 0.0 CALM 0 0 0 0 1009.1 1009.0 5.0
04/09:00pm 26.1 33.3 26.1 100 0.0 CALM 0 0 0 0 1008.7 1008.6 5.0
04/08:30pm 26.4 33.8 26.4 100 0.0 CALM 0 0 0 0 1008.7 1008.6 5.0
04/08:00pm 26.4 33.8 26.4 100 0.0 CALM 0 0 0 0 1008.1 1008.0 5.0
04/07:30pm 26.4 33.8 26.4 100 0.0 CALM 0 0 0 0 1008.0 1007.9 5.0
04/07:00pm 26.5 33.9 26.5 100 0.0 CALM 0 0 0 0 1007.7 1007.6 5.0
04/06:30pm 26.7 34.3 26.7 100 0.0 CALM 0 0 0 0 1007.2 1007.1 5.0
04/06:00pm 26.6 33.3 26.6 100 0.0 NNE 4 4 2 2 1007.2 1007.1 5.0
04/05:30pm 26.8 33.7 26.8 100 0.0 SW 4 6 2 3 1007.1 1007.0 5.0
04/05:00pm 26.4 33.4 26.4 100 0.0 NNW 2 4 1 2 1006.7 1006.6 5.0
04/04:30pm 29.0 35.1 27.0 89 1.4 SSE 9 17 5 9 1006.8 1006.7 3.8
04/04:00pm 29.9 37.8 28.8 94 0.8 WSW 6 11 3 6 1006.7 1006.6 3.8
04/03:30pm 29.1 35.6 28.2 95 0.7 WNW 11 20 6 11 1006.3 1006.2 3.8
04/03:00pm 29.0 36.1 29.0 100 0.0 NNW 11 22 6 12 1006.4 1006.3 3.6
04/02:30pm 28.5 35.6 28.5 100 0.0 N 9 17 5 9 1006.6 1006.5 3.6
04/02:00pm 28.5 36.2 28.5 100 0.0 NE 6 11 3 6 1007.0 1006.9 2.8

Other Formats:

Comma delimited format used in spreadsheet applications
http://www.bom.gov.au/fwo/IDD60801/IDD60801.94109.axf

JavaScript Object Notation format (JSON) in row-major order
http://www.bom.gov.au/fwo/IDD60801/IDD60801.94109.json